Time;durP1;ratioP1;P1;durP2;ratioP2;P2;SDS_P1;SDS_P2;PMS_P1;PMS_P2;Temp;Humidity;BMP_temperature;BMP_pressure;BME280_temperature;BME280_humidity;BME280_pressure;Samples;Min_cycle;Max_cycle;Signal;HPM_P1;HPM_P2
2023/09/10 13:15:58;;;;;;;17.00;16.10;;;37.00;23.90;;;;;;5399998;24;21034;-55
2023/09/10 13:18:23;;;;;;;16.83;15.93;;;37.30;24.10;;;;;;4763732;30;20445;-51
2023/09/10 13:20:51;;;;;;;17.10;16.10;;;37.60;22.90;;;;;;4766109;30;20272;-54
2023/09/10 13:23:17;;;;;;;17.33;16.23;;;37.80;22.70;;;;;;4766996;30;20188;-48
2023/09/10 13:25:42;;;;;;;16.30;15.43;;;38.10;22.40;;;;;;4766684;30;21057;-52
2023/09/10 13:28:08;;;;;;;17.10;16.20;;;38.10;21.90;;;;;;4766996;30;20658;-53
2023/09/10 13:30:33;;;;;;;16.03;15.23;;;38.40;21.30;;;;;;4767043;30;20617;-58
2023/09/10 13:33:00;;;;;;;17.27;16.43;;;38.50;21.40;;;;;;4766890;30;20200;-54
2023/09/10 13:35:26;;;;;;;17.23;16.33;;;38.90;21.50;;;;;;4766785;30;20196;-53
2023/09/10 13:37:51;;;;;;;16.30;15.40;;;39.20;20.20;;;;;;4767107;30;20506;-50
2023/09/10 13:40:17;;;;;;;16.40;15.40;;;39.50;20.40;;;;;;4767456;30;20548;-53
2023/09/10 13:42:43;;;;;;;16.80;16.00;;;39.50;20.00;;;;;;4766829;30;20270;-54
2023/09/10 13:45:09;;;;;;;16.90;16.00;;;39.80;19.30;;;;;;4767020;30;20707;-54
2023/09/10 13:47:34;;;;;;;16.40;15.60;;;40.10;19.80;;;;;;4766643;30;20192;-52
2023/09/10 13:50:00;;;;;;;17.13;16.33;;;40.30;18.30;;;;;;4766662;30;20473;-50
2023/09/10 13:52:27;;;;;;;17.00;16.10;;;40.30;18.50;;;;;;4766891;30;20216;-56
2023/09/10 13:54:52;;;;;;;16.80;15.90;;;40.80;18.20;;;;;;4766524;30;20199;-55
2023/09/10 13:57:18;;;;;;;15.70;14.90;;;41.10;17.70;;;;;;4766428;30;20861;-52
2023/09/10 13:59:43;;;;;;;15.80;15.00;;;41.30;17.80;;;;;;4766799;30;20215;-53
2023/09/10 14:02:09;;;;;;;15.90;15.10;;;41.80;16.60;;;;;;4766614;30;20199;-58
2023/09/10 14:04:35;;;;;;;16.20;15.50;;;41.80;15.50;;;;;;4766627;30;20194;-53
2023/09/10 14:07:00;;;;;;;15.93;15.13;;;42.00;16.00;;;;;;4766647;30;20234;-54
2023/09/10 14:09:26;;;;;;;15.50;14.80;;;41.90;15.40;;;;;;4765599;30;20243;-53
2023/09/10 14:11:52;;;;;;;17.40;16.20;;;42.00;15.60;;;;;;4766033;30;20238;-53
2023/09/10 14:14:17;;;;;;;17.00;16.20;;;42.10;15.30;;;;;;4766091;30;20205;-54
2023/09/10 14:16:43;;;;;;;16.37;15.57;;;41.90;14.90;;;;;;4766200;30;20242;-56
2023/09/10 14:19:09;;;;;;;16.37;15.57;;;41.60;14.80;;;;;;4766287;30;20671;-54
2023/09/10 14:21:38;;;;;;;16.40;15.60;;;41.70;14.80;;;;;;4766684;30;20195;-52
2023/09/10 14:24:04;;;;;;;16.23;15.43;;;41.60;15.50;;;;;;4767078;30;20184;-55
2023/09/10 14:26:29;;;;;;;15.90;15.10;;;41.80;15.20;;;;;;4766582;30;20468;-56
2023/09/10 14:28:55;;;;;;;16.50;15.60;;;41.80;15.30;;;;;;4762616;30;20461;-55
2023/09/10 14:31:21;;;;;;;15.63;14.93;;;41.90;14.70;;;;;;4765935;30;20219;-53
2023/09/10 14:33:46;;;;;;;15.53;14.73;;;41.90;15.00;;;;;;4766205;30;20183;-55
2023/09/10 14:36:13;;;;;;;16.20;15.40;;;42.00;15.40;;;;;;4766155;30;20194;-51
2023/09/10 14:38:39;;;;;;;16.23;15.43;;;41.90;14.60;;;;;;4766004;30;20604;-52
2023/09/10 14:41:04;;;;;;;16.07;15.33;;;41.70;15.00;;;;;;4766048;30;20537;-51
2023/09/10 14:43:30;;;;;;;16.03;15.23;;;41.40;14.60;;;;;;4765927;30;20191;-50
2023/09/10 14:45:56;;;;;;;16.30;15.50;;;41.20;15.10;;;;;;4766007;30;20521;-55
2023/09/10 14:48:22;;;;;;;16.97;16.13;;;41.20;15.90;;;;;;4765822;30;20187;-50
2023/09/10 14:50:48;;;;;;;15.80;15.10;;;41.10;15.20;;;;;;4765798;30;20815;-55
2023/09/10 14:53:14;;;;;;;15.83;15.07;;;41.10;15.20;;;;;;4766025;30;20187;-50
2023/09/10 14:55:39;;;;;;;15.20;14.50;;;41.00;15.30;;;;;;4775211;30;20191;-54
2023/09/10 14:58:05;;;;;;;16.57;15.60;;;40.80;14.70;;;;;;4765858;30;20457;-54
2023/09/10 15:00:32;;;;;;;16.37;15.57;;;40.90;15.20;;;;;;4765643;30;20203;-60
2023/09/10 15:02:58;;;;;;;17.17;16.27;;;40.70;15.00;;;;;;4765676;30;20940;-53
2023/09/10 15:05:24;;;;;;;16.00;15.20;;;40.50;15.80;;;;;;4765500;30;20998;-52
2023/09/10 15:07:50;;;;;;;17.37;16.10;;;40.30;15.90;;;;;;4765770;30;20488;-53
2023/09/10 15:10:15;;;;;;;16.77;15.97;;;40.00;16.20;;;;;;4766104;30;20219;-54
2023/09/10 15:12:41;;;;;;;16.07;15.17;;;39.60;15.80;;;;;;4765561;30;20210;-55
2023/09/10 15:15:07;;;;;;;16.30;15.50;;;39.50;16.80;;;;;;4763417;30;20180;-52
2023/09/10 15:17:33;;;;;;;16.53;15.73;;;39.50;16.30;;;;;;4764022;30;20236;-55
2023/09/10 15:19:58;;;;;;;16.33;15.50;;;39.40;16.30;;;;;;4766452;30;20441;-53
2023/09/10 15:22:24;;;;;;;16.50;15.70;;;39.10;16.60;;;;;;4766321;30;20194;-52
2023/09/10 15:24:50;;;;;;;16.17;15.37;;;39.00;16.90;;;;;;4765936;30;20227;-54
2023/09/10 15:27:15;;;;;;;15.73;14.93;;;38.80;17.60;;;;;;4765995;30;20199;-54
2023/09/10 15:29:41;;;;;;;16.03;15.20;;;38.70;17.40;;;;;;4765836;30;20860;-51
2023/09/10 15:32:06;;;;;;;16.00;15.20;;;38.70;17.60;;;;;;4765897;30;20275;-53
2023/09/10 15:34:32;;;;;;;16.10;15.30;;;38.50;17.70;;;;;;4763183;30;20364;-50
2023/09/10 15:36:58;;;;;;;16.53;15.63;;;38.40;18.00;;;;;;4765851;30;20188;-51
2023/09/10 15:39:23;;;;;;;15.93;15.13;;;38.30;18.00;;;;;;4764850;30;20206;-52
2023/09/10 15:41:49;;;;;;;17.00;16.10;;;38.10;18.50;;;;;;4765572;30;20232;-53
2023/09/10 15:44:15;;;;;;;16.13;15.33;;;37.90;18.00;;;;;;4754292;30;20329;-53
2023/09/10 15:46:41;;;;;;;17.13;16.23;;;37.60;18.60;;;;;;4766115;30;20940;-55
2023/09/10 15:49:07;;;;;;;17.20;16.30;;;37.40;19.10;;;;;;4766105;30;20438;-55
2023/09/10 15:51:32;;;;;;;17.00;16.00;;;37.10;20.10;;;;;;4766084;30;20208;-52
2023/09/10 15:53:59;;;;;;;18.17;17.17;;;36.80;20.10;;;;;;4765817;30;20188;-51
2023/09/10 15:56:25;;;;;;;16.30;15.40;;;36.50;20.30;;;;;;4774948;29;20200;-47
2023/09/10 15:58:51;;;;;;;15.70;14.90;;;36.10;19.90;;;;;;4765734;30;20442;-55
2023/09/10 16:01:17;;;;;;;17.50;16.50;;;35.70;20.30;;;;;;4759949;30;20470;-54
2023/09/10 16:03:42;;;;;;;17.73;16.83;;;35.60;20.10;;;;;;4759481;30;20679;-51
2023/09/10 16:06:10;;;;;;;19.00;17.80;;;35.10;21.20;;;;;;4766288;30;20236;-55
2023/09/10 16:08:36;;;;;;;18.93;17.87;;;34.70;22.40;;;;;;4766031;30;20705;-53
2023/09/10 16:11:01;;;;;;;18.23;17.20;;;34.40;23.00;;;;;;4766025;30;20586;-49
2023/09/10 16:13:27;;;;;;;17.10;16.20;;;34.10;23.40;;;;;;4765247;30;20184;-45
2023/09/10 16:15:53;;;;;;;16.97;15.97;;;33.80;23.30;;;;;;4765577;30;20236;-50
2023/09/10 16:18:18;;;;;;;17.37;16.27;;;33.50;23.90;;;;;;4765715;30;20223;-55
2023/09/10 16:20:44;;;;;;;17.93;16.83;;;33.40;23.90;;;;;;4761371;30;20219;-54
2023/09/10 16:23:09;;;;;;;17.83;16.83;;;33.20;24.30;;;;;;4765829;30;20651;-54
2023/09/10 16:25:35;;;;;;;17.50;16.50;;;33.00;24.70;;;;;;4761276;30;20248;-50
2023/09/10 16:28:03;;;;;;;17.30;16.30;;;32.90;25.40;;;;;;4766205;30;20236;-51
2023/09/10 16:30:29;;;;;;;17.17;16.20;;;32.70;25.80;;;;;;4765524;30;20437;-52
2023/09/10 16:32:54;;;;;;;18.20;17.00;;;32.50;26.10;;;;;;4764159;30;20445;-55
2023/09/10 16:35:20;;;;;;;18.13;17.13;;;32.30;26.50;;;;;;4765144;30;21008;-51
2023/09/10 16:37:46;;;;;;;18.03;16.93;;;32.10;27.20;;;;;;4763421;30;20683;-56
2023/09/10 16:40:12;;;;;;;17.60;16.60;;;32.00;27.60;;;;;;4762362;30;20311;-56
2023/09/10 16:42:38;;;;;;;17.63;16.63;;;31.80;27.90;;;;;;4767651;30;20231;-52
2023/09/10 16:45:04;;;;;;;17.70;16.70;;;31.60;27.70;;;;;;4768818;30;20457;-50
2023/09/10 16:47:29;;;;;;;18.20;17.00;;;31.40;28.40;;;;;;4767562;30;20210;-47
2023/09/10 16:49:55;;;;;;;18.57;17.50;;;31.20;29.10;;;;;;4768375;30;20430;-53
2023/09/10 16:52:21;;;;;;;18.60;17.47;;;31.00;29.30;;;;;;4768275;30;20267;-56
2023/09/10 16:54:46;;;;;;;19.70;18.30;;;30.80;29.70;;;;;;4774465;30;20191;-51
2023/09/10 16:57:12;;;;;;;19.87;18.67;;;30.60;30.00;;;;;;4767997;29;20283;-52
2023/09/10 16:59:37;;;;;;;19.40;18.10;;;30.50;30.60;;;;;;4768230;30;20186;-53
2023/09/10 17:02:03;;;;;;;19.47;18.17;;;30.20;30.50;;;;;;4767303;30;20289;-53
2023/09/10 17:04:50;;;;;;;19.77;18.57;;;30.10;31.40;;;;;;4765620;30;20249;-47
2023/09/10 17:07:23;;;;;;;20.13;18.83;;;29.80;32.10;;;;;;4749363;30;20220;-43
2023/09/10 17:09:52;;;;;;;22.40;20.90;;;29.70;32.50;;;;;;4750486;30;20514;-49
2023/09/10 17:12:18;;;;;;;24.10;22.20;;;29.60;33.20;;;;;;4749248;30;20538;-49
2023/09/10 17:14:44;;;;;;;23.80;22.10;;;29.40;33.30;;;;;;4750460;30;20185;-49
2023/09/10 17:17:10;;;;;;;23.40;21.80;;;29.20;33.90;;;;;;4748601;30;20934;-45
2023/09/10 17:19:36;;;;;;;24.50;22.80;;;29.00;35.00;;;;;;4741771;30;20430;-44
2023/09/10 17:22:01;;;;;;;24.37;22.67;;;28.90;35.80;;;;;;4749909;30;20505;-48
2023/09/10 17:24:28;;;;;;;25.23;23.53;;;28.70;36.40;;;;;;4748896;30;20219;-50
2023/09/10 17:26:54;;;;;;;22.30;20.80;;;28.50;37.10;;;;;;4749192;30;20584;-46
2023/09/10 17:29:19;;;;;;;19.60;18.30;;;28.40;37.20;;;;;;4749083;30;20464;-44
2023/09/10 17:31:45;;;;;;;21.97;20.43;;;28.20;37.20;;;;;;4748636;30;20653;-50
2023/09/10 17:34:11;;;;;;;26.50;24.50;;;27.90;37.90;;;;;;4747884;30;20254;-54
2023/09/10 17:36:37;;;;;;;24.90;23.17;;;27.80;39.00;;;;;;4748935;30;20504;-48
2023/09/10 17:39:02;;;;;;;25.17;23.17;;;27.60;39.60;;;;;;4748635;30;20699;-47
2023/09/10 17:41:28;;;;;;;26.77;24.80;;;27.50;40.40;;;;;;4748595;30;20204;-44
2023/09/10 17:43:54;;;;;;;27.53;25.50;;;27.40;41.50;;;;;;4748950;30;20254;-50
2023/09/10 17:46:19;;;;;;;24.40;22.60;;;27.20;42.50;;;;;;4748514;30;20212;-45
2023/09/10 17:48:45;;;;;;;23.10;21.40;;;27.00;43.40;;;;;;4748017;30;20188;-46
2023/09/10 17:51:17;;;;;;;23.43;21.60;;;26.90;43.80;;;;;;4749127;30;20188;-46
2023/09/10 17:53:43;;;;;;;23.63;21.83;;;26.70;44.50;;;;;;4748994;30;20420;-45
2023/09/10 17:56:08;;;;;;;23.43;21.83;;;26.60;45.20;;;;;;4754988;30;20769;-45
2023/09/10 17:58:34;;;;;;;22.77;21.07;;;26.40;45.20;;;;;;4749824;30;20192;-44
2023/09/10 18:01:00;;;;;;;22.27;20.67;;;26.30;45.90;;;;;;4749047;30;20281;-51
2023/09/10 18:03:28;;;;;;;23.83;22.20;;;26.10;46.30;;;;;;4748886;30;20192;-46
2023/09/10 18:05:54;;;;;;;27.27;25.20;;;26.00;47.60;;;;;;4749406;30;20201;-50
2023/09/10 18:08:19;;;;;;;24.97;23.07;;;25.80;49.00;;;;;;4749764;30;20441;-47
2023/09/10 18:10:45;;;;;;;27.17;24.87;;;25.60;50.80;;;;;;4749359;30;20279;-45
2023/09/10 18:13:10;;;;;;;26.47;24.43;;;25.50;52.40;;;;;;4749836;30;20196;-50
2023/09/10 18:15:36;;;;;;;25.90;23.80;;;25.30;53.80;;;;;;4749420;30;20185;-45
2023/09/10 18:18:02;;;;;;;26.73;24.77;;;25.10;56.00;;;;;;4748247;30;20533;-47
2023/09/10 18:20:27;;;;;;;24.37;22.37;;;25.00;57.90;;;;;;4746865;30;20244;-43
2023/09/10 18:22:53;;;;;;;27.03;24.97;;;24.80;60.60;;;;;;4746722;30;20208;-45
2023/09/10 18:25:19;;;;;;;26.90;24.90;;;24.60;64.70;;;;;;4740535;30;20650;-45
2023/09/10 18:27:45;;;;;;;27.60;25.47;;;24.50;67.40;;;;;;4746438;30;20679;-49
2023/09/10 18:30:12;;;;;;;28.03;25.80;;;24.30;71.70;;;;;;4748416;30;20431;-48
2023/09/10 18:32:39;;;;;;;28.73;26.27;;;24.20;74.40;;;;;;4735092;30;20205;-46
2023/09/10 18:35:06;;;;;;;27.63;25.53;;;24.10;77.00;;;;;;4746690;30;20454;-46
2023/09/10 18:37:31;;;;;;;32.27;29.57;;;24.00;80.80;;;;;;4747549;30;20446;-51
2023/09/10 18:39:57;;;;;;;31.83;29.13;;;23.80;85.40;;;;;;4748492;30;20459;-47
2023/09/10 18:42:22;;;;;;;28.30;25.80;;;23.70;88.60;;;;;;4747058;30;20518;-49
2023/09/10 18:44:48;;;;;;;31.80;29.20;;;23.60;92.10;;;;;;4746820;30;20249;-51
2023/09/10 18:47:14;;;;;;;34.80;31.80;;;23.50;92.70;;;;;;4748997;30;20669;-48
2023/09/10 18:49:40;;;;;;;27.50;25.03;;;23.40;94.50;;;;;;4746518;30;20191;-44
2023/09/10 18:52:07;;;;;;;25.60;23.50;;;23.30;96.00;;;;;;4748695;30;20945;-44
2023/09/10 18:54:34;;;;;;;25.30;23.30;;;23.10;96.10;;;;;;4748481;30;20454;-44
2023/09/10 18:57:00;;;;;;;23.07;21.27;;;23.00;96.60;;;;;;4747152;30;20960;-43
2023/09/10 18:59:26;;;;;;;23.47;21.67;;;22.90;97.00;;;;;;4747037;30;20987;-47
2023/09/10 19:01:51;;;;;;;22.33;20.63;;;22.80;98.30;;;;;;4748779;30;20469;-44
2023/09/10 19:04:20;;;;;;;21.83;20.17;;;22.70;98.70;;;;;;4746085;30;20192;-45
2023/09/10 19:06:47;;;;;;;23.70;22.00;;;22.70;99.60;;;;;;4746870;30;20212;-46
2023/09/10 19:09:16;;;;;;;21.70;20.20;;;22.60;99.90;;;;;;4746830;30;20439;-46
2023/09/10 19:11:45;;;;;;;22.17;20.57;;;22.50;99.90;;;;;;4748130;30;20492;-45
2023/09/10 19:14:14;;;;;;;22.53;20.83;;;22.50;99.90;;;;;;4748913;30;20922;-44
2023/09/10 19:16:40;;;;;;;21.03;19.43;;;22.40;99.90;;;;;;4745847;30;20488;-43
2023/09/10 19:19:09;;;;;;;22.70;21.10;;;22.40;99.90;;;;;;4746146;30;20977;-46
2023/09/10 19:21:35;;;;;;;21.87;20.20;;;22.40;99.90;;;;;;4748129;30;20525;-47
2023/09/10 19:24:01;;;;;;;21.93;20.33;;;22.30;99.90;;;;;;4748638;30;20431;-44
2023/09/10 19:26:27;;;;;;;23.30;21.60;;;22.20;99.90;;;;;;4748225;30;20430;-46
2023/09/10 19:28:53;;;;;;;22.27;20.67;;;22.10;99.90;;;;;;4747484;30;20515;-46
2023/09/10 19:31:18;;;;;;;22.30;20.70;;;22.10;99.90;;;;;;4747910;30;20204;-47
2023/09/10 19:33:44;;;;;;;23.43;21.47;;;22.00;99.90;;;;;;4745211;30;20555;-43
2023/09/10 19:36:10;;;;;;;22.93;21.23;;;22.00;99.90;;;;;;4748111;30;20189;-43
2023/09/10 19:38:35;;;;;;;23.40;21.70;;;21.90;99.90;;;;;;4747159;30;20200;-44
2023/09/10 19:41:01;;;;;;;25.33;23.43;;;21.90;99.90;;;;;;4761284;30;20481;-48
2023/09/10 19:43:27;;;;;;;25.40;23.43;;;21.80;99.90;;;;;;4748419;30;20272;-45
2023/09/10 19:45:52;;;;;;;23.03;21.33;;;21.80;99.90;;;;;;4748161;30;20191;-48
2023/09/10 19:48:18;;;;;;;24.07;22.07;;;21.70;99.90;;;;;;4746517;30;20192;-47
2023/09/10 19:50:44;;;;;;;23.67;21.87;;;21.60;99.90;;;;;;4745485;30;20204;-46
2023/09/10 19:53:10;;;;;;;25.03;23.20;;;21.50;99.90;;;;;;4745208;30;20253;-48
2023/09/10 19:55:35;;;;;;;26.10;24.20;;;21.40;99.90;;;;;;4745310;30;20959;-43
2023/09/10 19:58:01;;;;;;;24.73;23.03;;;21.40;99.90;;;;;;4741427;30;20300;-42
2023/09/10 20:00:28;;;;;;;22.80;21.20;;;21.40;99.90;;;;;;4740314;30;20212;-45
2023/09/10 20:02:54;;;;;;;24.33;22.70;;;21.30;99.90;;;;;;4741521;30;20841;-43
2023/09/10 20:05:19;;;;;;;23.63;21.80;;;21.20;99.90;;;;;;4739701;30;20451;-44
2023/09/10 20:07:45;;;;;;;24.67;22.87;;;21.10;99.90;;;;;;4738961;30;20219;-46
2023/09/10 20:10:11;;;;;;;23.87;22.07;;;21.10;99.90;;;;;;4740604;30;20598;-44
2023/09/10 20:12:37;;;;;;;23.40;21.27;;;21.00;99.90;;;;;;4739864;30;20220;-47
2023/09/10 20:15:05;;;;;;;24.47;22.67;;;21.00;99.90;;;;;;4743003;30;20480;-45
2023/09/10 20:17:31;;;;;;;23.27;21.47;;;20.90;99.90;;;;;;4743565;30;20239;-46
2023/09/10 20:19:57;;;;;;;23.23;21.60;;;20.80;99.90;;;;;;4745360;30;20422;-53
2023/09/10 20:22:22;;;;;;;24.80;23.00;;;20.80;99.90;;;;;;4747353;30;20426;-47
2023/09/10 20:24:48;;;;;;;23.80;22.10;;;20.70;99.90;;;;;;4749844;30;20195;-48
2023/09/10 20:27:15;;;;;;;24.37;22.57;;;20.60;99.90;;;;;;4751608;30;20892;-48
2023/09/10 20:29:41;;;;;;;24.20;22.50;;;20.60;99.90;;;;;;4751984;30;20454;-46
2023/09/10 20:32:07;;;;;;;24.00;22.30;;;20.50;99.90;;;;;;4751385;30;20504;-46
2023/09/10 20:34:32;;;;;;;24.00;22.30;;;20.40;99.90;;;;;;4751942;30;20906;-43
2023/09/10 20:36:58;;;;;;;22.87;21.37;;;20.40;99.90;;;;;;4751049;30;20656;-43
2023/09/10 20:39:24;;;;;;;24.30;22.30;;;20.30;99.90;;;;;;4751877;30;20177;-43
2023/09/10 20:41:49;;;;;;;25.00;22.80;;;20.30;99.90;;;;;;4751351;30;20365;-45
2023/09/10 20:44:15;;;;;;;23.90;22.00;;;20.30;99.90;;;;;;4748549;30;20204;-47
2023/09/10 20:46:41;;;;;;;23.87;22.17;;;20.20;99.90;;;;;;4747466;30;20196;-45
2023/09/10 20:49:06;;;;;;;23.87;22.17;;;20.10;99.90;;;;;;4751612;30;20930;-45
2023/09/10 20:51:32;;;;;;;23.27;21.60;;;20.10;99.90;;;;;;4751398;30;20259;-41
2023/09/10 20:53:58;;;;;;;24.27;22.47;;;20.00;99.90;;;;;;4751215;30;20189;-47
2023/09/10 20:56:23;;;;;;;23.60;21.80;;;19.90;99.90;;;;;;4745184;30;20227;-51
2023/09/10 20:58:49;;;;;;;24.10;22.30;;;19.80;99.90;;;;;;4748592;30;20198;-48
2023/09/10 21:01:15;;;;;;;23.63;21.83;;;19.80;99.90;;;;;;4749825;30;20268;-49
2023/09/10 21:03:40;;;;;;;24.40;22.60;;;19.80;99.90;;;;;;4751238;30;20200;-45
2023/09/10 21:06:06;;;;;;;24.43;22.73;;;19.70;99.90;;;;;;4751114;30;20494;-49
2023/09/10 21:08:32;;;;;;;23.43;21.73;;;19.70;99.90;;;;;;4750429;30;20700;-45
2023/09/10 21:10:58;;;;;;;24.00;22.20;;;19.60;99.90;;;;;;4751277;30;20201;-48
2023/09/10 21:13:24;;;;;;;25.40;23.50;;;19.50;99.90;;;;;;4751310;30;20184;-45
2023/09/10 21:15:49;;;;;;;23.73;22.07;;;19.50;99.90;;;;;;4751056;30;20474;-45
2023/09/10 21:18:16;;;;;;;22.73;21.13;;;19.40;99.90;;;;;;4750419;30;20984;-43
2023/09/10 21:20:42;;;;;;;23.00;21.40;;;19.40;99.90;;;;;;4750209;30;20277;-52
2023/09/10 21:23:07;;;;;;;23.60;21.90;;;19.30;99.90;;;;;;4750155;30;20549;-46
2023/09/10 21:25:33;;;;;;;24.87;22.97;;;19.30;99.90;;;;;;4749464;30;20200;-48
2023/09/10 21:27:58;;;;;;;23.57;21.77;;;19.20;99.90;;;;;;4749962;30;20216;-46
2023/09/10 21:30:28;;;;;;;23.80;22.10;;;19.20;99.90;;;;;;4749540;30;21078;-49
2023/09/10 21:32:54;;;;;;;25.87;23.90;;;19.10;99.90;;;;;;4750356;30;20192;-45
2023/09/10 21:35:20;;;;;;;24.57;22.77;;;19.10;99.90;;;;;;4749595;30;20443;-44
2023/09/10 21:37:46;;;;;;;23.77;22.00;;;19.00;99.90;;;;;;4748998;30;21604;-49
2023/09/10 21:40:11;;;;;;;24.57;22.67;;;19.00;99.90;;;;;;4750449;30;20220;-48
2023/09/10 21:42:37;;;;;;;23.70;21.90;;;19.00;99.90;;;;;;4750025;30;20574;-43
2023/09/10 21:45:03;;;;;;;24.10;22.40;;;18.90;99.90;;;;;;4747492;30;20229;-45
2023/09/10 21:47:28;;;;;;;24.03;22.13;;;18.80;99.90;;;;;;4750462;30;20298;-45
2023/09/10 21:49:54;;;;;;;24.67;22.80;;;18.80;99.90;;;;;;4749005;30;20962;-48
2023/09/10 21:52:20;;;;;;;23.60;21.90;;;18.80;99.90;;;;;;4737941;30;20211;-45
2023/09/10 21:54:45;;;;;;;24.90;23.03;;;18.70;99.90;;;;;;4755839;30;20184;-43
2023/09/10 21:57:11;;;;;;;24.30;22.50;;;18.70;99.90;;;;;;4749643;30;20189;-53
2023/09/10 21:59:36;;;;;;;22.77;21.03;;;18.60;99.90;;;;;;4759805;30;20223;-48
2023/09/10 22:02:03;;;;;;;24.57;22.67;;;18.60;99.90;;;;;;4750047;30;20203;-47
2023/09/10 22:04:29;;;;;;;23.90;22.20;;;18.50;99.90;;;;;;4749639;30;20196;-46
2023/09/10 22:06:55;;;;;;;25.40;23.50;;;18.50;99.90;;;;;;4749447;30;20454;-46
2023/09/10 22:09:20;;;;;;;23.80;21.90;;;18.40;99.90;;;;;;4749606;30;20199;-44
2023/09/10 22:11:46;;;;;;;24.37;22.57;;;18.40;99.90;;;;;;4749388;30;20485;-45
2023/09/10 22:14:11;;;;;;;24.33;22.50;;;18.30;99.90;;;;;;4743937;30;20193;-47
2023/09/10 22:16:39;;;;;;;23.37;21.67;;;18.30;99.90;;;;;;4736588;30;20240;-42
2023/09/10 22:19:07;;;;;;;23.20;21.53;;;18.20;99.90;;;;;;4749531;30;20197;-46
2023/09/10 22:21:32;;;;;;;24.27;22.37;;;18.20;99.90;;;;;;4746816;30;20515;-44
2023/09/10 22:23:58;;;;;;;23.50;21.77;;;18.10;99.90;;;;;;4750001;30;20438;-44
2023/09/10 22:26:23;;;;;;;24.27;22.43;;;18.10;99.90;;;;;;4749054;30;20242;-53
2023/09/10 22:28:49;;;;;;;23.40;21.70;;;18.00;99.90;;;;;;4762559;30;20200;-43
2023/09/10 22:31:15;;;;;;;24.17;22.37;;;18.00;99.90;;;;;;4748964;30;20236;-45
2023/09/10 22:33:42;;;;;;;24.43;22.63;;;18.00;99.90;;;;;;4749554;30;20185;-45
2023/09/10 22:36:11;;;;;;;24.10;22.30;;;17.90;99.90;;;;;;4749577;30;20655;-45
2023/09/10 22:38:37;;;;;;;24.70;23.00;;;17.90;99.90;;;;;;4748047;30;20784;-44
2023/09/10 22:41:03;;;;;;;24.40;22.50;;;17.90;99.90;;;;;;4748250;30;20491;-53
2023/09/10 22:43:29;;;;;;;24.93;23.10;;;17.90;99.90;;;;;;4740059;30;20205;-45
2023/09/10 22:45:55;;;;;;;24.60;22.60;;;17.80;99.90;;;;;;4747438;30;20204;-47
2023/09/10 22:48:22;;;;;;;25.10;23.20;;;17.80;99.90;;;;;;4735812;30;20649;-45
2023/09/10 22:50:48;;;;;;;25.23;23.37;;;17.80;99.90;;;;;;4730958;30;20486;-47
2023/09/10 22:53:14;;;;;;;23.70;21.90;;;17.80;99.90;;;;;;4732190;30;20446;-48
2023/09/10 22:55:39;;;;;;;24.37;22.57;;;17.80;99.90;;;;;;4756625;30;20441;-47
2023/09/10 22:58:05;;;;;;;26.40;24.23;;;17.70;99.90;;;;;;4751688;30;20431;-46
2023/09/10 23:00:30;;;;;;;24.80;22.97;;;17.70;99.90;;;;;;4749171;30;20227;-47
2023/09/10 23:02:56;;;;;;;24.43;22.70;;;17.60;99.90;;;;;;4749542;30;20647;-45
2023/09/10 23:05:22;;;;;;;25.03;23.03;;;17.60;99.90;;;;;;4762897;30;20188;-46
2023/09/10 23:07:47;;;;;;;25.73;23.40;;;17.60;99.90;;;;;;4749615;30;20192;-42
2023/09/10 23:10:13;;;;;;;25.37;23.37;;;17.60;99.90;;;;;;4748797;30;20630;-44
2023/09/10 23:12:38;;;;;;;25.20;23.20;;;17.60;99.90;;;;;;4748997;30;20268;-43
2023/09/10 23:15:04;;;;;;;25.90;23.80;;;17.60;99.90;;;;;;4749220;30;20251;-46
2023/09/10 23:17:30;;;;;;;25.50;23.50;;;17.50;99.90;;;;;;4749061;30;20243;-45
2023/09/10 23:19:57;;;;;;;24.70;22.80;;;17.50;99.90;;;;;;4749235;30;20422;-46
2023/09/10 23:22:27;;;;;;;24.10;22.13;;;17.50;99.90;;;;;;4749439;30;20176;-45
2023/09/10 23:24:54;;;;;;;24.77;22.87;;;17.50;99.90;;;;;;4749115;30;20450;-45
2023/09/10 23:27:24;;;;;;;23.83;22.13;;;17.50;99.90;;;;;;4749306;30;20431;-46
2023/09/10 23:29:49;;;;;;;24.30;22.50;;;17.50;99.90;;;;;;4749207;30;20411;-43
2023/09/10 23:32:15;;;;;;;24.53;22.63;;;17.40;99.90;;;;;;4748969;30;20528;-47
2023/09/10 23:34:42;;;;;;;26.03;23.93;;;17.40;99.90;;;;;;4749283;30;20204;-47
2023/09/10 23:37:07;;;;;;;23.97;22.20;;;17.40;99.90;;;;;;4749491;30;20911;-47
2023/09/10 23:39:33;;;;;;;25.50;23.60;;;17.30;99.90;;;;;;4748483;30;20478;-45
2023/09/10 23:41:58;;;;;;;25.67;23.67;;;17.30;99.90;;;;;;4749164;30;20208;-43
2023/09/10 23:44:24;;;;;;;24.10;22.30;;;17.20;99.90;;;;;;4739768;30;20258;-43
2023/09/10 23:46:50;;;;;;;25.20;23.20;;;17.20;99.90;;;;;;4746059;30;20196;-47
2023/09/10 23:49:16;;;;;;;25.57;23.67;;;17.20;99.90;;;;;;4747134;30;20723;-45
2023/09/10 23:51:41;;;;;;;25.90;23.90;;;17.20;99.90;;;;;;4752360;30;20546;-44
2023/09/10 23:54:07;;;;;;;25.03;23.10;;;17.20;99.90;;;;;;4753722;30;20230;-46
2023/09/10 23:56:32;;;;;;;25.50;23.53;;;17.20;99.90;;;;;;4753758;30;20271;-43
2023/09/10 23:58:58;;;;;;;25.17;23.20;;;17.10;99.90;;;;;;4752577;30;20207;-49
